sensor_id;sensor_type;location;lat;lon;timestamp;P1;durP1;ratioP1;P2;durP2;ratioP2
37131;SDS011;23035;50.032;21.978;2022-12-26T00:01:28;9.20;;;4.57;;
37131;SDS011;23035;50.032;21.978;2022-12-26T00:06:34;9.35;;;4.35;;
37131;SDS011;23035;50.032;21.978;2022-12-26T00:11:42;9.18;;;4.68;;
37131;SDS011;23035;50.032;21.978;2022-12-26T00:16:47;7.63;;;3.93;;
37131;SDS011;23035;50.032;21.978;2022-12-26T00:21:53;7.75;;;4.20;;
37131;SDS011;23035;50.032;21.978;2022-12-26T00:26:59;8.18;;;4.35;;
37131;SDS011;23035;50.032;21.978;2022-12-26T00:32:03;11.18;;;4.57;;
37131;SDS011;23035;50.032;21.978;2022-12-26T00:37:09;8.13;;;4.32;;
37131;SDS011;23035;50.032;21.978;2022-12-26T00:47:18;7.82;;;4.60;;
37131;SDS011;23035;50.032;21.978;2022-12-26T00:52:24;8.60;;;3.15;;
37131;SDS011;23035;50.032;21.978;2022-12-26T01:02:32;6.35;;;3.42;;
37131;SDS011;23035;50.032;21.978;2022-12-26T01:07:45;5.70;;;3.20;;
37131;SDS011;23035;50.032;21.978;2022-12-26T01:13:11;4.85;;;3.17;;
37131;SDS011;23035;50.032;21.978;2022-12-26T01:18:16;6.07;;;3.28;;
37131;SDS011;23035;50.032;21.978;2022-12-26T01:23:24;5.15;;;3.13;;
37131;SDS011;23035;50.032;21.978;2022-12-26T01:28:29;12.13;;;5.97;;
37131;SDS011;23035;50.032;21.978;2022-12-26T01:33:33;7.10;;;3.92;;
37131;SDS011;23035;50.032;21.978;2022-12-26T01:38:39;5.45;;;3.78;;
37131;SDS011;23035;50.032;21.978;2022-12-26T01:43:48;7.95;;;3.80;;
37131;SDS011;23035;50.032;21.978;2022-12-26T01:48:59;7.18;;;4.20;;
37131;SDS011;23035;50.032;21.978;2022-12-26T01:54:11;8.27;;;4.13;;
37131;SDS011;23035;50.032;21.978;2022-12-26T01:59:37;5.80;;;3.60;;
37131;SDS011;23035;50.032;21.978;2022-12-26T02:04:45;7.18;;;3.90;;
37131;SDS011;23035;50.032;21.978;2022-12-26T02:10:13;8.00;;;3.95;;
37131;SDS011;23035;50.032;21.978;2022-12-26T02:15:21;7.57;;;4.32;;
37131;SDS011;23035;50.032;21.978;2022-12-26T02:20:26;6.80;;;4.00;;
37131;SDS011;23035;50.032;21.978;2022-12-26T02:25:44;6.10;;;4.47;;
37131;SDS011;23035;50.032;21.978;2022-12-26T02:31:16;8.65;;;3.95;;
37131;SDS011;23035;50.032;21.978;2022-12-26T02:36:31;8.10;;;4.80;;
37131;SDS011;23035;50.032;21.978;2022-12-26T02:41:51;8.98;;;4.55;;
37131;SDS011;23035;50.032;21.978;2022-12-26T02:47:10;11.30;;;4.65;;
37131;SDS011;23035;50.032;21.978;2022-12-26T02:52:19;7.55;;;4.35;;
37131;SDS011;23035;50.032;21.978;2022-12-26T02:57:50;6.93;;;3.78;;
37131;SDS011;23035;50.032;21.978;2022-12-26T03:03:26;9.38;;;4.55;;
37131;SDS011;23035;50.032;21.978;2022-12-26T03:08:51;10.20;;;4.88;;
37131;SDS011;23035;50.032;21.978;2022-12-26T03:14:31;7.55;;;4.28;;
37131;SDS011;23035;50.032;21.978;2022-12-26T03:19:42;8.23;;;4.70;;
37131;SDS011;23035;50.032;21.978;2022-12-26T03:25:03;8.48;;;4.93;;
37131;SDS011;23035;50.032;21.978;2022-12-26T03:30:28;9.57;;;5.27;;
37131;SDS011;23035;50.032;21.978;2022-12-26T03:35:52;11.35;;;5.35;;
37131;SDS011;23035;50.032;21.978;2022-12-26T03:40:58;9.52;;;4.95;;
37131;SDS011;23035;50.032;21.978;2022-12-26T03:46:28;9.77;;;5.15;;
37131;SDS011;23035;50.032;21.978;2022-12-26T03:52:12;9.60;;;4.70;;
37131;SDS011;23035;50.032;21.978;2022-12-26T03:57:44;9.13;;;4.65;;
37131;SDS011;23035;50.032;21.978;2022-12-26T04:03:13;10.90;;;5.18;;
37131;SDS011;23035;50.032;21.978;2022-12-26T04:08:42;8.80;;;4.90;;
37131;SDS011;23035;50.032;21.978;2022-12-26T04:14:09;7.53;;;5.10;;
37131;SDS011;23035;50.032;21.978;2022-12-26T04:19:49;15.60;;;7.65;;
37131;SDS011;23035;50.032;21.978;2022-12-26T04:25:04;11.27;;;4.95;;
37131;SDS011;23035;50.032;21.978;2022-12-26T04:30:51;11.18;;;5.95;;
37131;SDS011;23035;50.032;21.978;2022-12-26T04:36:19;7.70;;;4.90;;
37131;SDS011;23035;50.032;21.978;2022-12-26T04:41:48;10.30;;;5.47;;
37131;SDS011;23035;50.032;21.978;2022-12-26T04:47:14;7.35;;;4.90;;
37131;SDS011;23035;50.032;21.978;2022-12-26T04:52:20;7.35;;;4.40;;
37131;SDS011;23035;50.032;21.978;2022-12-26T04:57:26;7.25;;;4.20;;
37131;SDS011;23035;50.032;21.978;2022-12-26T05:02:31;8.23;;;4.30;;
37131;SDS011;23035;50.032;21.978;2022-12-26T05:07:53;10.30;;;5.03;;
37131;SDS011;23035;50.032;21.978;2022-12-26T05:13:16;8.70;;;4.35;;
37131;SDS011;23035;50.032;21.978;2022-12-26T05:23:42;7.15;;;4.43;;
37131;SDS011;23035;50.032;21.978;2022-12-26T05:29:04;7.18;;;4.47;;
37131;SDS011;23035;50.032;21.978;2022-12-26T05:34:10;6.78;;;4.00;;
37131;SDS011;23035;50.032;21.978;2022-12-26T05:39:18;10.48;;;5.13;;
37131;SDS011;23035;50.032;21.978;2022-12-26T05:44:24;6.28;;;4.43;;
37131;SDS011;23035;50.032;21.978;2022-12-26T05:54:33;8.57;;;3.92;;
37131;SDS011;23035;50.032;21.978;2022-12-26T05:59:39;9.57;;;3.70;;
37131;SDS011;23035;50.032;21.978;2022-12-26T06:04:44;7.90;;;3.83;;
37131;SDS011;23035;50.032;21.978;2022-12-26T06:09:48;7.25;;;3.78;;
37131;SDS011;23035;50.032;21.978;2022-12-26T06:14:54;9.00;;;3.80;;
37131;SDS011;23035;50.032;21.978;2022-12-26T06:19:58;8.52;;;4.60;;
37131;SDS011;23035;50.032;21.978;2022-12-26T06:25:03;7.13;;;3.90;;
37131;SDS011;23035;50.032;21.978;2022-12-26T06:30:11;8.52;;;3.83;;
37131;SDS011;23035;50.032;21.978;2022-12-26T06:35:16;8.40;;;3.78;;
37131;SDS011;23035;50.032;21.978;2022-12-26T06:40:20;9.90;;;4.20;;
37131;SDS011;23035;50.032;21.978;2022-12-26T06:45:26;5.72;;;3.85;;
37131;SDS011;23035;50.032;21.978;2022-12-26T06:50:30;9.88;;;4.10;;
37131;SDS011;23035;50.032;21.978;2022-12-26T06:55:41;8.52;;;3.78;;
37131;SDS011;23035;50.032;21.978;2022-12-26T07:00:47;9.30;;;3.60;;
37131;SDS011;23035;50.032;21.978;2022-12-26T07:05:51;6.65;;;3.25;;
37131;SDS011;23035;50.032;21.978;2022-12-26T07:10:56;5.68;;;3.22;;
37131;SDS011;23035;50.032;21.978;2022-12-26T07:16:02;7.18;;;3.90;;
37131;SDS011;23035;50.032;21.978;2022-12-26T07:21:09;8.32;;;4.00;;
37131;SDS011;23035;50.032;21.978;2022-12-26T07:26:15;6.57;;;3.75;;
37131;SDS011;23035;50.032;21.978;2022-12-26T07:31:22;6.80;;;4.23;;
37131;SDS011;23035;50.032;21.978;2022-12-26T07:36:31;8.43;;;4.75;;
37131;SDS011;23035;50.032;21.978;2022-12-26T07:41:36;6.80;;;4.33;;
37131;SDS011;23035;50.032;21.978;2022-12-26T07:47:00;7.97;;;4.63;;
37131;SDS011;23035;50.032;21.978;2022-12-26T07:52:04;8.25;;;4.32;;
37131;SDS011;23035;50.032;21.978;2022-12-26T07:57:11;9.00;;;4.30;;
37131;SDS011;23035;50.032;21.978;2022-12-26T08:02:38;10.70;;;5.18;;
37131;SDS011;23035;50.032;21.978;2022-12-26T08:07:45;8.18;;;5.00;;
37131;SDS011;23035;50.032;21.978;2022-12-26T08:12:49;10.77;;;5.25;;
37131;SDS011;23035;50.032;21.978;2022-12-26T08:17:55;9.68;;;5.63;;
37131;SDS011;23035;50.032;21.978;2022-12-26T08:23:00;10.00;;;5.65;;
37131;SDS011;23035;50.032;21.978;2022-12-26T08:28:05;10.55;;;5.85;;
37131;SDS011;23035;50.032;21.978;2022-12-26T08:33:32;14.75;;;6.97;;
37131;SDS011;23035;50.032;21.978;2022-12-26T08:38:37;13.02;;;7.22;;
37131;SDS011;23035;50.032;21.978;2022-12-26T08:49:30;10.80;;;6.28;;
37131;SDS011;23035;50.032;21.978;2022-12-26T08:54:35;10.20;;;6.28;;
37131;SDS011;23035;50.032;21.978;2022-12-26T09:07:23;14.63;;;6.13;;
37131;SDS011;23035;50.032;21.978;2022-12-26T09:12:28;11.50;;;6.28;;
37131;SDS011;23035;50.032;21.978;2022-12-26T09:17:33;14.97;;;7.73;;
37131;SDS011;23035;50.032;21.978;2022-12-26T09:22:40;13.32;;;7.15;;
37131;SDS011;23035;50.032;21.978;2022-12-26T09:27:58;10.05;;;6.28;;
37131;SDS011;23035;50.032;21.978;2022-12-26T09:33:04;24.52;;;12.90;;
37131;SDS011;23035;50.032;21.978;2022-12-26T09:38:16;11.13;;;6.72;;
37131;SDS011;23035;50.032;21.978;2022-12-26T09:43:23;13.38;;;7.28;;
37131;SDS011;23035;50.032;21.978;2022-12-26T09:48:38;15.80;;;7.43;;
37131;SDS011;23035;50.032;21.978;2022-12-26T09:53:52;13.27;;;6.88;;
37131;SDS011;23035;50.032;21.978;2022-12-26T09:59:02;13.18;;;6.93;;
37131;SDS011;23035;50.032;21.978;2022-12-26T10:04:20;11.98;;;6.63;;
37131;SDS011;23035;50.032;21.978;2022-12-26T10:09:38;13.88;;;6.78;;
37131;SDS011;23035;50.032;21.978;2022-12-26T10:15:01;12.70;;;7.13;;
37131;SDS011;23035;50.032;21.978;2022-12-26T10:20:19;10.73;;;6.28;;
37131;SDS011;23035;50.032;21.978;2022-12-26T10:25:32;11.77;;;6.35;;
37131;SDS011;23035;50.032;21.978;2022-12-26T10:30:44;13.63;;;7.47;;
37131;SDS011;23035;50.032;21.978;2022-12-26T10:35:51;12.70;;;7.10;;
37131;SDS011;23035;50.032;21.978;2022-12-26T10:40:59;13.50;;;6.57;;
37131;SDS011;23035;50.032;21.978;2022-12-26T10:46:21;12.95;;;6.95;;
37131;SDS011;23035;50.032;21.978;2022-12-26T10:51:38;12.32;;;7.28;;
37131;SDS011;23035;50.032;21.978;2022-12-26T10:56:45;11.25;;;7.35;;
37131;SDS011;23035;50.032;21.978;2022-12-26T11:01:52;13.13;;;7.78;;
37131;SDS011;23035;50.032;21.978;2022-12-26T11:06:57;14.85;;;8.43;;
37131;SDS011;23035;50.032;21.978;2022-12-26T11:12:04;13.73;;;8.88;;
37131;SDS011;23035;50.032;21.978;2022-12-26T11:17:11;19.55;;;10.07;;
37131;SDS011;23035;50.032;21.978;2022-12-26T11:22:21;15.65;;;9.32;;
37131;SDS011;23035;50.032;21.978;2022-12-26T11:27:31;20.95;;;10.65;;
37131;SDS011;23035;50.032;21.978;2022-12-26T11:32:35;18.50;;;9.90;;
37131;SDS011;23035;50.032;21.978;2022-12-26T11:42:49;25.08;;;13.13;;
37131;SDS011;23035;50.032;21.978;2022-12-26T11:47:58;19.33;;;11.52;;
37131;SDS011;23035;50.032;21.978;2022-12-26T11:53:05;16.95;;;9.55;;
37131;SDS011;23035;50.032;21.978;2022-12-26T11:58:16;16.27;;;9.10;;
37131;SDS011;23035;50.032;21.978;2022-12-26T12:03:25;15.27;;;8.63;;
37131;SDS011;23035;50.032;21.978;2022-12-26T12:08:36;17.10;;;9.73;;
37131;SDS011;23035;50.032;21.978;2022-12-26T12:13:52;15.32;;;8.13;;
37131;SDS011;23035;50.032;21.978;2022-12-26T12:19:19;14.98;;;8.95;;
37131;SDS011;23035;50.032;21.978;2022-12-26T12:24:35;16.92;;;9.18;;
37131;SDS011;23035;50.032;21.978;2022-12-26T12:30:02;14.50;;;9.13;;
37131;SDS011;23035;50.032;21.978;2022-12-26T12:35:25;15.40;;;8.90;;
37131;SDS011;23035;50.032;21.978;2022-12-26T12:40:39;19.02;;;9.45;;
37131;SDS011;23035;50.032;21.978;2022-12-26T12:45:57;17.83;;;9.73;;
37131;SDS011;23035;50.032;21.978;2022-12-26T12:51:15;15.27;;;8.93;;
37131;SDS011;23035;50.032;21.978;2022-12-26T12:56:32;19.63;;;9.88;;
37131;SDS011;23035;50.032;21.978;2022-12-26T13:01:49;19.85;;;9.10;;
37131;SDS011;23035;50.032;21.978;2022-12-26T13:07:01;15.82;;;9.07;;
37131;SDS011;23035;50.032;21.978;2022-12-26T13:12:11;14.82;;;8.93;;
37131;SDS011;23035;50.032;21.978;2022-12-26T13:17:21;20.60;;;9.70;;
37131;SDS011;23035;50.032;21.978;2022-12-26T13:22:30;14.95;;;8.45;;
37131;SDS011;23035;50.032;21.978;2022-12-26T13:27:53;15.18;;;9.10;;
37131;SDS011;23035;50.032;21.978;2022-12-26T13:33:13;15.95;;;9.65;;
37131;SDS011;23035;50.032;21.978;2022-12-26T13:38:18;30.80;;;13.27;;
37131;SDS011;23035;50.032;21.978;2022-12-26T13:43:24;21.40;;;11.30;;
37131;SDS011;23035;50.032;21.978;2022-12-26T13:54:29;23.83;;;13.32;;
37131;SDS011;23035;50.032;21.978;2022-12-26T13:59:37;15.48;;;9.57;;
37131;SDS011;23035;50.032;21.978;2022-12-26T14:04:55;18.27;;;10.27;;
37131;SDS011;23035;50.032;21.978;2022-12-26T14:10:11;17.33;;;9.82;;
37131;SDS011;23035;50.032;21.978;2022-12-26T14:15:34;21.45;;;11.48;;
37131;SDS011;23035;50.032;21.978;2022-12-26T14:20:53;21.33;;;11.52;;
37131;SDS011;23035;50.032;21.978;2022-12-26T14:26:20;22.35;;;13.18;;
37131;SDS011;23035;50.032;21.978;2022-12-26T14:31:36;22.42;;;11.70;;
37131;SDS011;23035;50.032;21.978;2022-12-26T14:36:53;20.70;;;11.60;;
37131;SDS011;23035;50.032;21.978;2022-12-26T14:42:17;22.70;;;12.15;;
37131;SDS011;23035;50.032;21.978;2022-12-26T14:47:41;21.48;;;12.55;;
37131;SDS011;23035;50.032;21.978;2022-12-26T14:52:49;21.50;;;13.20;;
37131;SDS011;23035;50.032;21.978;2022-12-26T14:57:54;28.40;;;15.70;;
37131;SDS011;23035;50.032;21.978;2022-12-26T15:08:52;28.02;;;16.27;;
37131;SDS011;23035;50.032;21.978;2022-12-26T15:14:23;18.33;;;11.13;;
37131;SDS011;23035;50.032;21.978;2022-12-26T15:36:48;22.70;;;11.05;;
37131;SDS011;23035;50.032;21.978;2022-12-26T15:42:03;32.72;;;16.08;;
37131;SDS011;23035;50.032;21.978;2022-12-26T15:47:23;35.88;;;18.55;;
37131;SDS011;23035;50.032;21.978;2022-12-26T15:52:40;22.67;;;12.15;;
37131;SDS011;23035;50.032;21.978;2022-12-26T15:57:56;23.00;;;12.10;;
37131;SDS011;23035;50.032;21.978;2022-12-26T16:03:12;22.98;;;12.05;;
37131;SDS011;23035;50.032;21.978;2022-12-26T16:08:29;26.02;;;13.63;;
37131;SDS011;23035;50.032;21.978;2022-12-26T16:13:55;25.65;;;12.85;;
37131;SDS011;23035;50.032;21.978;2022-12-26T16:19:15;27.70;;;14.65;;
37131;SDS011;23035;50.032;21.978;2022-12-26T16:24:22;21.10;;;11.95;;
37131;SDS011;23035;50.032;21.978;2022-12-26T16:29:28;28.57;;;14.07;;
37131;SDS011;23035;50.032;21.978;2022-12-26T16:34:34;21.95;;;13.02;;
37131;SDS011;23035;50.032;21.978;2022-12-26T16:39:39;24.17;;;13.98;;
37131;SDS011;23035;50.032;21.978;2022-12-26T16:44:45;21.10;;;11.63;;
37131;SDS011;23035;50.032;21.978;2022-12-26T16:54:54;20.55;;;11.05;;
37131;SDS011;23035;50.032;21.978;2022-12-26T17:00:02;22.15;;;11.35;;
37131;SDS011;23035;50.032;21.978;2022-12-26T17:05:15;20.17;;;11.48;;
37131;SDS011;23035;50.032;21.978;2022-12-26T17:10:24;21.25;;;10.38;;
37131;SDS011;23035;50.032;21.978;2022-12-26T17:15:32;15.98;;;9.23;;
37131;SDS011;23035;50.032;21.978;2022-12-26T17:20:39;18.10;;;10.35;;
37131;SDS011;23035;50.032;21.978;2022-12-26T17:25:43;19.40;;;11.05;;
37131;SDS011;23035;50.032;21.978;2022-12-26T17:30:53;23.58;;;11.55;;
37131;SDS011;23035;50.032;21.978;2022-12-26T17:41:25;20.38;;;11.85;;
37131;SDS011;23035;50.032;21.978;2022-12-26T17:46:31;23.40;;;11.77;;
37131;SDS011;23035;50.032;21.978;2022-12-26T17:51:36;20.27;;;11.00;;
37131;SDS011;23035;50.032;21.978;2022-12-26T17:56:41;22.10;;;11.20;;
37131;SDS011;23035;50.032;21.978;2022-12-26T18:01:46;21.98;;;11.80;;
37131;SDS011;23035;50.032;21.978;2022-12-26T18:06:51;26.30;;;11.60;;
37131;SDS011;23035;50.032;21.978;2022-12-26T18:11:56;20.65;;;11.68;;
37131;SDS011;23035;50.032;21.978;2022-12-26T18:17:02;18.20;;;10.18;;
37131;SDS011;23035;50.032;21.978;2022-12-26T18:22:10;22.70;;;10.93;;
37131;SDS011;23035;50.032;21.978;2022-12-26T18:27:17;20.25;;;10.93;;
37131;SDS011;23035;50.032;21.978;2022-12-26T18:32:26;21.23;;;11.80;;
37131;SDS011;23035;50.032;21.978;2022-12-26T18:37:32;19.40;;;11.02;;
37131;SDS011;23035;50.032;21.978;2022-12-26T18:42:36;21.83;;;11.77;;
37131;SDS011;23035;50.032;21.978;2022-12-26T18:47:42;18.00;;;9.95;;
37131;SDS011;23035;50.032;21.978;2022-12-26T18:52:47;18.15;;;10.73;;
37131;SDS011;23035;50.032;21.978;2022-12-26T18:57:55;58.97;;;25.63;;
37131;SDS011;23035;50.032;21.978;2022-12-26T19:03:01;34.78;;;15.70;;
37131;SDS011;23035;50.032;21.978;2022-12-26T19:08:06;41.53;;;19.40;;
37131;SDS011;23035;50.032;21.978;2022-12-26T19:13:13;28.23;;;15.20;;
37131;SDS011;23035;50.032;21.978;2022-12-26T19:18:19;19.30;;;10.25;;
37131;SDS011;23035;50.032;21.978;2022-12-26T19:28:27;20.45;;;10.68;;
37131;SDS011;23035;50.032;21.978;2022-12-26T19:33:33;16.02;;;9.38;;
37131;SDS011;23035;50.032;21.978;2022-12-26T19:38:37;16.42;;;9.40;;
37131;SDS011;23035;50.032;21.978;2022-12-26T19:43:42;15.10;;;8.90;;
37131;SDS011;23035;50.032;21.978;2022-12-26T19:48:48;16.15;;;9.65;;
37131;SDS011;23035;50.032;21.978;2022-12-26T19:53:52;14.80;;;9.02;;
37131;SDS011;23035;50.032;21.978;2022-12-26T19:58:57;14.45;;;8.57;;
37131;SDS011;23035;50.032;21.978;2022-12-26T20:04:03;12.82;;;8.35;;
37131;SDS011;23035;50.032;21.978;2022-12-26T20:09:09;12.75;;;8.30;;
37131;SDS011;23035;50.032;21.978;2022-12-26T20:14:16;11.13;;;7.30;;
37131;SDS011;23035;50.032;21.978;2022-12-26T20:24:27;13.55;;;7.38;;
37131;SDS011;23035;50.032;21.978;2022-12-26T20:29:32;14.52;;;8.52;;
37131;SDS011;23035;50.032;21.978;2022-12-26T20:34:38;12.60;;;7.07;;
37131;SDS011;23035;50.032;21.978;2022-12-26T20:44:46;14.13;;;8.18;;
37131;SDS011;23035;50.032;21.978;2022-12-26T20:49:52;15.15;;;8.15;;
37131;SDS011;23035;50.032;21.978;2022-12-26T21:00:00;21.13;;;10.15;;
37131;SDS011;23035;50.032;21.978;2022-12-26T21:05:07;16.17;;;9.68;;
37131;SDS011;23035;50.032;21.978;2022-12-26T21:10:12;17.35;;;9.85;;
37131;SDS011;23035;50.032;21.978;2022-12-26T21:15:16;16.73;;;9.82;;
37131;SDS011;23035;50.032;21.978;2022-12-26T21:20:22;17.33;;;10.05;;
37131;SDS011;23035;50.032;21.978;2022-12-26T21:30:31;16.45;;;9.95;;
37131;SDS011;23035;50.032;21.978;2022-12-26T21:35:37;21.73;;;12.07;;
37131;SDS011;23035;50.032;21.978;2022-12-26T21:40:41;18.48;;;9.75;;
37131;SDS011;23035;50.032;21.978;2022-12-26T21:45:49;20.20;;;11.43;;
37131;SDS011;23035;50.032;21.978;2022-12-26T21:51:05;16.73;;;8.93;;
37131;SDS011;23035;50.032;21.978;2022-12-26T21:56:11;18.58;;;9.95;;
37131;SDS011;23035;50.032;21.978;2022-12-26T22:01:17;19.42;;;11.23;;
37131;SDS011;23035;50.032;21.978;2022-12-26T22:06:23;14.15;;;8.43;;
37131;SDS011;23035;50.032;21.978;2022-12-26T22:11:28;14.57;;;8.23;;
37131;SDS011;23035;50.032;21.978;2022-12-26T22:16:50;12.73;;;7.47;;
37131;SDS011;23035;50.032;21.978;2022-12-26T22:21:56;13.90;;;7.77;;
37131;SDS011;23035;50.032;21.978;2022-12-26T22:27:01;15.30;;;9.05;;
37131;SDS011;23035;50.032;21.978;2022-12-26T22:32:05;15.10;;;8.95;;
37131;SDS011;23035;50.032;21.978;2022-12-26T22:37:11;14.50;;;9.43;;
37131;SDS011;23035;50.032;21.978;2022-12-26T22:42:16;13.02;;;7.65;;
37131;SDS011;23035;50.032;21.978;2022-12-26T22:47:20;14.73;;;8.20;;
37131;SDS011;23035;50.032;21.978;2022-12-26T22:52:26;13.68;;;8.25;;
37131;SDS011;23035;50.032;21.978;2022-12-26T22:57:31;15.05;;;8.57;;
37131;SDS011;23035;50.032;21.978;2022-12-26T23:02:37;13.05;;;8.32;;
37131;SDS011;23035;50.032;21.978;2022-12-26T23:07:43;13.18;;;7.57;;
37131;SDS011;23035;50.032;21.978;2022-12-26T23:12:48;13.90;;;8.05;;
37131;SDS011;23035;50.032;21.978;2022-12-26T23:17:55;15.93;;;9.03;;
37131;SDS011;23035;50.032;21.978;2022-12-26T23:23:24;12.65;;;7.72;;
37131;SDS011;23035;50.032;21.978;2022-12-26T23:28:29;14.25;;;7.97;;
37131;SDS011;23035;50.032;21.978;2022-12-26T23:33:51;15.63;;;8.73;;
37131;SDS011;23035;50.032;21.978;2022-12-26T23:38:56;13.10;;;7.68;;
37131;SDS011;23035;50.032;21.978;2022-12-26T23:44:01;16.15;;;9.13;;
37131;SDS011;23035;50.032;21.978;2022-12-26T23:49:07;13.60;;;8.40;;
37131;SDS011;23035;50.032;21.978;2022-12-26T23:54:13;13.68;;;8.15;;
